Data for 11/07/2006

Time Sea-Level Adjusted Pressure Absolute Pressure Temperature Relative Humidity Dew Point   
(mb) (inHg) (mb) (inHg) (C) (F) (%) (C) (F)
00:05 1015 29.97 844 24.92 16.1 61 46 4.5 40
00:10 1015 29.97 844 24.92 16.2 61.2 44 4.1 39.4
00:15 1015 29.97 845 24.95 16.3 61.4 44 4.2 39.5
00:20 1015 29.97 845 24.95 16.6 61.9 44 4.3 39.7
00:25 1015 29.97 845 24.95 16.8 62.3 43 4.4 39.9
00:30 1015 29.97 845 24.95 16.7 62.1 44 4.7 40.4
00:35 1015 29.97 845 24.95 16.6 61.9 45 4.8 40.7
00:40 1015 29.97 845 24.95 16.5 61.7 46 4.9 40.7
00:45 1015 29.97 844 24.92 16.5 61.7 45 4.7 40.5
00:50 1015 29.97 844 24.92 16.6 61.9 45 4.7 40.5
00:55 1015 29.97 844 24.92 16.6 61.8 45 4.8 40.7
01:00 1015 29.97 844 24.92 16.5 61.6 46 4.8 40.6
01:05 1015 29.97 844 24.92 16.6 61.8 45 4.8 40.6
01:10 1015 29.97 844 24.92 16.5 61.7 45 4.7 40.5
01:15 1015 29.97 844 24.92 16.6 61.8 45 4.7 40.4
01:20 1015 29.97 844 24.92 16.7 62 44 4.6 40.4
01:25 1015 29.97 844 24.92 16.7 62.1 44 4.6 40.3
01:30 1015 29.97 844 24.92 16.7 62.1 45 4.8 40.6
01:35 1015 29.97 844 24.92 16.6 61.9 45 4.7 40.5
01:40 1015 29.97 844 24.92 16.6 61.8 45 4.7 40.4
01:45 1015 29.97 844 24.92 16.7 62 45 4.8 40.6
01:50 1015 29.97 844 24.92 16.7 62.1 45 4.8 40.6
01:55 1015 29.97 844 24.92 16.7 62 45 4.7 40.5
02:00 1015 29.97 844 24.92 16.8 62.3 44 4.6 40.4
02:05 1015 29.97 844 24.92 16.9 62.4 45 5 40.9
02:10 1015 29.97 844 24.92 16.6 61.9 46 5.1 41.2
02:15 1015 29.97 844 24.92 16.6 61.8 45 4.8 40.6
02:20 1015 29.97 844 24.92 16.7 62 45 4.8 40.7
02:25 1015 29.97 844 24.92 16.7 62 45 4.8 40.6
02:30 1014 29.94 844 24.92 16.5 61.7 45 4.7 40.5
02:35 1015 29.97 844 24.92 16.5 61.8 45 4.8 40.6
02:40 1015 29.97 844 24.92 16.6 61.8 45 4.6 40.4
02:45 1015 29.97 844 24.92 16.5 61.7 46 4.8 40.6
02:50 1015 29.97 844 24.92 16.6 61.8 44 4.5 40.2
02:55 1015 29.97 844 24.92 16.9 62.3 43 4.5 40
03:00 1015 29.97 844 24.92 17 62.6 44 4.7 40.4
03:05 1015 29.97 844 24.92 16.9 62.5 43 4.5 40.1
03:10 1015 29.97 844 24.92 17 62.6 44 4.7 40.5
03:15 1015 29.97 844 24.92 16.9 62.4 44 4.6 40.3
03:20 1015 29.97 844 24.92 16.9 62.3 44 4.7 40.5
03:25 1015 29.97 844 24.92 16.7 62.1 45 4.9 40.9
03:30 1015 29.97 844 24.92 16.6 61.8 44 4.5 40.1
03:35 1015 29.97 844 24.92 16.6 62 45 4.7 40.4
03:40 1014 29.94 844 24.92 16.6 61.9 45 4.6 40.3
03:45 1014 29.94 843 24.89 16.9 62.4 44 4.7 40.4
03:50 1014 29.94 844 24.92 17 62.6 44 4.7 40.4
03:55 1014 29.94 844 24.92 17 62.6 45 5 40.9
04:00 1014 29.94 844 24.92 16.7 62.1 46 5 41
04:05 1014 29.94 844 24.92 16.6 61.8 46 5 40.9
04:10 1014 29.94 844 24.92 16.6 61.9 46 5 41.1
04:15 1014 29.94 844 24.92 16.6 61.9 46 5 41
04:20 1014 29.94 844 24.92 16.5 61.8 46 5.1 41.1
04:25 1014 29.94 844 24.92 16.5 61.7 46 4.9 40.8
04:30 1014 29.94 843 24.89 16.5 61.8 47 5.2 41.4
04:35 1014 29.94 843 24.89 16.4 61.4 46 5 40.9
04:40 1014 29.94 843 24.89 16.3 61.3 47 5 40.9
04:45 1014 29.94 843 24.89 15.9 60.6 48 5.1 41.2
04:50 1014 29.94 843 24.89 15.6 60 48 4.6 40.3
04:55 1014 29.94 843 24.89 15.9 60.6 47 4.6 40.2
05:00 1014 29.94 843 24.89 15.9 60.5 47 4.6 40.3
05:05 1014 29.94 843 24.89 15.8 60.4 48 4.8 40.6
05:10 1014 29.94 843 24.89 15.8 60.4 47 4.5 40.1
05:15 1014 29.94 843 24.89 16.1 60.9 46 4.6 40.2
05:20 1014 29.94 843 24.89 16.4 61.5 46 4.7 40.5
05:25 1014 29.94 843 24.89 16.5 61.7 45 4.7 40.4
05:30 1014 29.94 843 24.89 16.5 61.8 45 4.8 40.6
05:35 1014 29.94 843 24.89 16.5 61.6 46 4.8 40.6
05:40 1014 29.94 843 24.89 16.4 61.5 46 4.8 40.6
05:45 1014 29.94 843 24.89 16.4 61.5 46 4.8 40.7
05:50 1014 29.94 843 24.89 16.4 61.5 45 4.6 40.3
05:55 1014 29.94 843 24.89 16.5 61.6 45 4.4 40
06:00 1014 29.94 843 24.89 16.5 61.8 45 4.7 40.5
06:05 1014 29.94 843 24.89 16.4 61.6 45 4.7 40.4
06:10 1014 29.94 843 24.89 16.3 61.4 46 4.7 40.4
06:15 1014 29.94 843 24.89 16.2 61.2 46 4.7 40.5
06:20 1014 29.94 843 24.89 16.2 61.1 47 4.8 40.7
06:25 1014 29.94 843 24.89 16.2 61.1 47 4.8 40.6
06:30 1013 29.91 843 24.89 16.4 61.4 45 4.6 40.3
06:35 1014 29.94 843 24.89 16.5 61.8 45 4.5 40.1
06:40 1014 29.94 843 24.89 16.5 61.7 45 4.7 40.5
06:45 1013 29.91 843 24.89 16.3 61.3 45 4.4 39.9
06:50 1013 29.91 843 24.89 16.3 61.4 45 4.6 40.3
06:55 1013 29.91 843 24.89 16.1 61 46 4.5 40.2
07:00 1013 29.91 842 24.86 16.1 61 46 4.7 40.4
07:05 1013 29.91 843 24.89 16 60.7 46 4.5 40.2
07:10 1013 29.91 842 24.86 15.9 60.7 46 4.4 39.8
07:15 1013 29.91 842 24.86 16.4 61.6 43 4.1 39.3
07:20 1013 29.91 842 24.86 16.6 62 44 4.4 39.8
07:25 1013 29.91 842 24.86 16.7 62 44 4.3 39.8
07:30 1013 29.91 842 24.86 16.5 61.8 44 4.4 39.9
07:35 1013 29.91 842 24.86 16.3 61.3 45 4.5 40
07:40 1013 29.91 843 24.89 16.2 61.1 45 4.4 39.9
07:45 1013 29.91 843 24.89 16.2 61.2 46 4.5 40.2
07:50 1013 29.91 843 24.89 16.3 61.3 45 4.4 40
07:55 1014 29.94 843 24.89 16.5 61.6 46 4.8 40.7
08:00 1013 29.91 843 24.89 16.3 61.4 45 4.6 40.3
08:05 1013 29.91 842 24.86 16.3 61.4 45 4.3 39.8
08:10 1013 29.91 842 24.86 16.5 61.6 45 4.6 40.4
08:15 1013 29.91 842 24.86 16.3 61.4 45 4.4 40
08:20 1013 29.91 842 24.86 16.4 61.5 44 4.3 39.8
08:25 1013 29.91 842 24.86 16.4 61.5 44 4.3 39.7
08:30 1013 29.91 842 24.86 16.6 61.8 44 4.3 39.7
08:35 1013 29.91 842 24.86 16.7 62 44 4.5 40.1
08:40 1013 29.91 842 24.86 16.5 61.7 44 4.3 39.7
08:45 1013 29.91 842 24.86 16.6 61.9 44 4.5 40
08:50 1013 29.91 842 24.86 16.8 62.3 42 4.1 39.4
08:55 1013 29.91 842 24.86 17.3 63.1 42 4.2 39.6
09:00 1013 29.91 842 24.86 17.7 63.9 40 4 39.2
09:05 1013 29.91 842 24.86 18.3 65 39 4.3 39.8
09:10 1012 29.88 842 24.86 18.7 65.7 38 4.4 40
09:15 1012 29.88 842 24.86 18.8 65.8 39 4.6 40.2
09:20 1012 29.88 842 24.86 18.7 65.7 38 4.1 39.3
09:25 1012 29.88 842 24.86 18.3 65 39 4.2 39.6
09:30 1012 29.88 842 24.86 18.4 65 38 3.9 39.1
09:35 1012 29.88 842 24.86 18.3 64.9 39 4.2 39.6
09:40 1012 29.88 841 24.83 18.3 65 38 3.8 38.8
09:45 1012 29.88 841 24.83 18.3 64.9 39 4.1 39.3
09:50 1012 29.88 841 24.83 18.1 64.6 39 3.9 39.1
09:55 1012 29.88 841 24.83 18.5 65.2 36 3.3 38
10:00 1012 29.88 841 24.83 18.7 65.6 37 3.7 38.7
10:05 1012 29.88 841 24.83 18.5 65.3 37 3.7 38.6
10:10 1012 29.88 841 24.83 18.4 65 37 3.7 38.6
10:15 1012 29.88 841 24.83 18.5 65.3 37 3.8 38.9
10:20 1012 29.88 841 24.83 18.6 65.5 36 3.3 38
10:25 1012 29.88 841 24.83 18.6 65.5 36 3.4 38.1
10:30 1012 29.88 841 24.83 18.8 65.9 35 3.3 38
10:35 1012 29.88 841 24.83 18.8 65.8 37 3.8 38.8
10:40 1012 29.88 841 24.83 18.7 65.6 36 3.3 38
10:45 1012 29.88 841 24.83 18.7 65.6 35 3.1 37.5
10:50 1012 29.88 841 24.83 18.9 66 36 3.7 38.7
10:55 1012 29.88 841 24.83 19 66.1 35 3.5 38.3
11:00 1012 29.88 841 24.83 19.1 66.3 35 3.5 38.3
11:05 1012 29.88 841 24.83 18.8 65.8 35 3.1 37.7
11:10 1012 29.88 841 24.83 18.7 65.6 37 3.6 38.5
11:15 1012 29.88 841 24.83 18.4 65.2 37 3.7 38.6
11:20 1012 29.88 841 24.83 18.4 65 37 3.7 38.7
11:25 1011 29.85 841 24.83 18.3 64.9 38 3.7 38.6
11:30 1011 29.85 841 24.83 18.1 64.6 38 3.7 38.6
11:35 1011 29.85 840 24.81 18.2 64.8 38 3.8 38.9
11:40 1011 29.85 840 24.81 18.3 64.9 38 3.7 38.7
11:45 1011 29.85 840 24.81 18.4 65.2 36 3.2 37.7
11:50 1011 29.85 840 24.81 19 66.3 34 3.2 37.7
11:55 1011 29.85 840 24.81 19.5 67.1 34 3.6 38.4
12:00 1011 29.85 840 24.81 19.1 66.4 36 3.8 38.8
12:05 1011 29.85 840 24.81 18.9 66 35 3.3 37.9
12:10 1011 29.85 840 24.81 18.8 65.9 35 3.3 37.9
12:15 1011 29.85 840 24.81 18.8 65.8 35 3.3 37.9
12:20 1011 29.85 840 24.81 18.7 65.7 37 3.9 39
12:25 1011 29.85 840 24.81 18.7 65.6 37 3.8 38.8
12:30 1011 29.85 840 24.81 18.6 65.5 37 3.9 39
12:35 1011 29.85 840 24.81 18.6 65.5 36 3.3 38
12:40 1011 29.85 840 24.81 18.8 65.9 34 2.7 36.8
12:45 1011 29.85 840 24.81 18.8 65.9 34 2.9 37.3
12:50 1010 29.83 840 24.81 18.8 65.9 34 2.7 36.9
12:55 1010 29.83 840 24.81 18.7 65.7 34 2.8 37
13:00 1010 29.83 840 24.81 18.7 65.7 35 3 37.4
13:05 1010 29.83 839 24.78 18.5 65.3 36 3.5 38.3
13:10 1010 29.83 839 24.78 18.4 65.1 35 2.8 37.1
13:15 1010 29.83 839 24.78 18.5 65.2 35 2.9 37.1
13:20 1010 29.83 839 24.78 18.5 65.2 35 3 37.4
13:25 1010 29.83 839 24.78 18.5 65.3 35 2.8 37
13:30 1010 29.83 839 24.78 18.8 65.9 34 2.7 36.9
13:35 1010 29.83 839 24.78 19 66.2 34 2.8 37
13:40 1010 29.83 839 24.78 19.1 66.3 34 3.1 37.5
13:45 1010 29.83 839 24.78 18.9 66 35 3.5 38.2
13:50 1010 29.83 839 24.78 18.4 65.1 36 3.2 37.7
13:55 1010 29.83 839 24.78 18.2 64.8 37 3.3 37.9
14:00 1010 29.83 839 24.78 18.1 64.6 38 3.7 38.6
14:05 1010 29.83 839 24.78 18.1 64.5 36 3.1 37.6
14:10 1010 29.83 839 24.78 18.2 64.8 36 3.1 37.7
14:15 1010 29.83 839 24.78 18.3 64.9 35 2.8 37.1
14:20 1010 29.83 839 24.78 18.3 65 35 2.9 37.2
14:25 1010 29.83 839 24.78 18.3 65 35 2.7 36.9
14:30 1010 29.83 839 24.78 18.3 65 36 2.9 37.3
14:35 1010 29.83 839 24.78 18.1 64.5 38 3.8 38.8
14:40 1010 29.83 839 24.78 17.9 64.1 37 2.9 37.3
14:45 1010 29.83 839 24.78 18 64.4 35 2.4 36.3
14:50 1010 29.83 839 24.78 18.2 64.8 34 2.4 36.4
14:55 1010 29.83 839 24.78 18.3 64.9 34 2.4 36.4
15:00 1009 29.8 839 24.78 18.1 64.6 35 2.6 36.7
15:05 1009 29.8 839 24.78 18.1 64.6 36 3 37.4
15:10 1009 29.8 839 24.78 18 64.5 36 2.7 36.9
15:15 1009 29.8 839 24.78 18.1 64.5 35 2.6 36.6
15:20 1009 29.8 838 24.75 18.3 64.9 35 2.5 36.6
15:25 1009 29.8 838 24.75 18.3 64.9 35 2.8 37
15:30 1009 29.8 838 24.75 18.5 65.4 33 2.2 36
15:35 1009 29.8 838 24.75 19.4 66.9 31 2.2 35.9
15:40 1009 29.8 838 24.75 19.9 67.9 31 2.3 36.1
15:45 1009 29.8 838 24.75 20.1 68.2 30 2.4 36.3
15:50 1009 29.8 838 24.75 20 68.1 31 2.4 36.4
15:55 1009 29.8 838 24.75 19.9 67.8 31 2.4 36.4
16:00 1009 29.8 838 24.75 19.8 67.7 32 2.8 37.1
16:05 1009 29.8 838 24.75 19.4 66.9 33 3 37.5
16:10 1009 29.8 838 24.75 19 66.2 34 3 37.5
16:15 1009 29.8 838 24.75 18.9 65.9 34 2.8 37.1
16:20 1009 29.8 838 24.75 19 66.2 34 2.9 37.2
16:25 1008 29.77 838 24.75 18.9 66.1 33 2.6 36.8
16:30 1009 29.8 838 24.75 18.8 65.9 34 3 37.3
16:35 1008 29.77 838 24.75 18.6 65.4 35 2.8 37.1
16:40 1008 29.77 838 24.75 18.3 64.9 35 2.9 37.2
16:45 1008 29.77 838 24.75 18.2 64.8 35 2.6 36.8
16:50 1008 29.77 838 24.75 18.3 64.9 35 2.7 36.9
16:55 1008 29.77 838 24.75 18.1 64.6 36 2.8 37.1
17:00 1008 29.77 838 24.75 18 64.4 36 3 37.4
17:05 1008 29.77 838 24.75 17.9 64.2 36 2.8 37
17:10 1008 29.77 837 24.72 17.9 64.1 36 2.7 36.8
17:15 1008 29.77 837 24.72 17.9 64.2 35 2.5 36.5
17:20 1008 29.77 837 24.72 17.8 64 35 2.2 35.9
17:25 1008 29.77 837 24.72 18 64.3 34 2.1 35.9
17:30 1008 29.77 837 24.72 18 64.4 34 2.1 35.9
17:35 1008 29.77 837 24.72 17.8 64.1 35 2.3 36.2
17:40 1008 29.77 837 24.72 17.7 63.8 35 2.2 36
17:45 1008 29.77 837 24.72 17.5 63.5 35 2.1 35.8
17:50 1008 29.77 837 24.72 17.7 63.8 34 1.9 35.4
17:55 1008 29.77 837 24.72 17.9 64.1 35 2.5 36.4
18:00 1008 29.77 837 24.72 17.6 63.7 35 2.1 35.9
18:05 1007 29.74 837 24.72 17.6 63.7 35 2.1 35.8
18:10 1008 29.77 837 24.72 17.5 63.6 35 2.1 35.8
18:15 1007 29.74 837 24.72 17.7 63.8 34 1.8 35.2
18:20 1007 29.74 837 24.72 17.9 64.1 34 2.1 35.7
18:25 1007 29.74 837 24.72 17.8 64.1 34 2 35.7
18:30 1007 29.74 836 24.69 17.7 63.8 35 2.1 35.8
18:35 1007 29.74 836 24.69 17.7 63.8 35 2 35.5
18:40 1007 29.74 836 24.69 17.8 64 34 2 35.7
18:45 1007 29.74 836 24.69 17.9 64.2 34 1.9 35.4
18:50 1007 29.74 836 24.69 17.9 64.3 35 2.3 36.1
18:55 1007 29.74 836 24.69 17.7 63.8 35 2.1 35.7
19:00 1007 29.74 836 24.69 17.7 63.8 35 2.3 36.1
19:05 1007 29.74 836 24.69 17.5 63.5 35 2.1 35.9
19:10 1007 29.74 836 24.69 17.5 63.5 36 2.2 36
19:15 1007 29.74 836 24.69 17.5 63.5 36 2.3 36.2
19:20 1007 29.74 836 24.69 17.4 63.4 36 2.3 36.1
19:25 1007 29.74 836 24.69 17.4 63.3 36 2.3 36.2
19:30 1007 29.74 836 24.69 17.4 63.3 36 2.2 36
19:35 1007 29.74 836 24.69 17.7 63.8 34 1.9 35.3
19:40 1007 29.74 836 24.69 18.3 64.9 33 2 35.7
19:45 1007 29.74 836 24.69 18.3 65 34 2.2 35.9
19:50 1007 29.74 836 24.69 18.3 64.9 34 2.3 36.1
19:55 1007 29.74 836 24.69 18.3 65 34 2.2 36
20:00 1007 29.74 836 24.69 18.4 65.1 34 2.3 36.1
20:05 1007 29.74 836 24.69 18.4 65.1 34 2.5 36.5
20:10 1007 29.74 836 24.69 18.3 64.9 34 2.4 36.3
20:15 1007 29.74 836 24.69 18.4 65 34 2.2 35.9
20:20 1007 29.74 836 24.69 18.4 65.1 34 2.4 36.4
20:25 1007 29.74 836 24.69 18.3 64.9 34 2.5 36.4
20:30 1007 29.74 836 24.69 18.3 64.9 35 2.7 36.9
20:35 1007 29.74 836 24.69 18.2 64.8 36 2.9 37.3
20:40 1007 29.74 836 24.69 18 64.4 38 3.4 38.1
20:45 1007 29.74 836 24.69 17.8 64 38 3.5 38.2
20:50 1007 29.74 836 24.69 17.6 63.7 39 3.6 38.5
20:55 1007 29.74 836 24.69 17.4 63.3 40 3.7 38.7
21:00 1007 29.74 836 24.69 17.2 63 41 3.9 39
21:05 1007 29.74 836 24.69 17.1 62.7 41 4 39.1
21:10 1007 29.74 836 24.69 17 62.6 42 3.9 39.1
21:15 1007 29.74 836 24.69 16.9 62.4 42 4 39.3
21:20 1007 29.74 836 24.69 16.8 62.2 42 4 39.2
21:25 1007 29.74 836 24.69 16.7 62.1 43 4.1 39.3
21:30 1007 29.74 836 24.69 16.7 62.1 43 4.3 39.7
21:35 1007 29.74 836 24.69 16.6 61.9 44 4.4 39.9
21:40 1007 29.74 836 24.69 16.4 61.5 46 4.7 40.5
21:45 1007 29.74 836 24.69 16.1 61 47 4.8 40.6
21:50 1007 29.74 836 24.69 16 60.8 47 4.9 40.8
21:55 1007 29.74 836 24.69 15.8 60.5 48 5 41
22:00 1007 29.74 836 24.69 15.7 60.3 49 5.1 41.1
22:05 1007 29.74 836 24.69 15.6 60.1 50 5.3 41.6
22:10 1007 29.74 836 24.69 15.4 59.7 51 5.5 41.9
22:15 1007 29.74 836 24.69 15.1 59.2 52 5.6 42
22:20 1007 29.74 836 24.69 15 58.9 54 5.8 42.4
22:25 1007 29.74 837 24.72 14.7 58.5 55 6 42.8
22:30 1007 29.74 837 24.72 14.5 58.1 58 6.4 43.6
22:35 1007 29.74 837 24.72 14.1 57.4 61 6.8 44.3
22:40 1007 29.74 837 24.72 13.7 56.7 66 7.5 45.5
22:45 1007 29.74 837 24.72 13 55.5 72 8.2 46.8
22:50 1007 29.74 837 24.72 12.4 54.4 76 8.3 47
22:55 1007 29.74 837 24.72 12.1 53.9 78 8.5 47.3
23:00 1007 29.74 836 24.69 11.9 53.4 81 8.7 47.7
23:05 1007 29.74 836 24.69 11.7 53.1 82 8.8 47.8
23:10 1007 29.74 836 24.69 11.5 52.8 82 8.7 47.6
23:15 1007 29.74 836 24.69 11.5 52.6 82 8.5 47.3
23:20 1007 29.74 836 24.69 11.4 52.5 81 8.3 47
23:25 1007 29.74 836 24.69 11.5 52.7 79 8.1 46.5
23:30 1007 29.74 836 24.69 11.5 52.6 80 8.1 46.6
23:35 1007 29.74 836 24.69 11.4 52.5 79 7.9 46.2
23:40 1007 29.74 836 24.69 11.4 52.5 78 7.8 46
23:45 1007 29.74 836 24.69 11.4 52.6 76 7.3 45.2
23:50 1007 29.74 836 24.69 11.5 52.8 74 7 44.6
23:55 1007 29.74 836 24.69 11.9 53.3 73 7.1 44.8
24:00 1007 29.74 836 24.69 12 53.6 71 6.9 44.5